sensor_id;sensor_type;location;lat;lon;timestamp;P1;durP1;ratioP1;P2;durP2;ratioP2
22826;SDS011;11580;52.562;13.418;2023-03-05T00:02:18;6.53;;;4.07;;
22826;SDS011;11580;52.562;13.418;2023-03-05T00:04:45;8.90;;;4.50;;
22826;SDS011;11580;52.562;13.418;2023-03-05T00:07:13;8.37;;;4.67;;
22826;SDS011;11580;52.562;13.418;2023-03-05T00:09:40;6.00;;;3.70;;
22826;SDS011;11580;52.562;13.418;2023-03-05T00:12:07;5.60;;;3.60;;
22826;SDS011;11580;52.562;13.418;2023-03-05T00:14:36;6.20;;;3.60;;
22826;SDS011;11580;52.562;13.418;2023-03-05T00:17:03;7.13;;;3.87;;
22826;SDS011;11580;52.562;13.418;2023-03-05T00:19:31;9.47;;;3.23;;
22826;SDS011;11580;52.562;13.418;2023-03-05T00:21:58;4.63;;;2.87;;
22826;SDS011;11580;52.562;13.418;2023-03-05T00:24:25;5.97;;;4.00;;
22826;SDS011;11580;52.562;13.418;2023-03-05T00:26:52;7.17;;;3.67;;
22826;SDS011;11580;52.562;13.418;2023-03-05T00:29:21;4.57;;;3.50;;
22826;SDS011;11580;52.562;13.418;2023-03-05T00:31:49;9.23;;;3.33;;
22826;SDS011;11580;52.562;13.418;2023-03-05T00:34:17;5.60;;;3.20;;
22826;SDS011;11580;52.562;13.418;2023-03-05T00:36:45;5.83;;;3.00;;
22826;SDS011;11580;52.562;13.418;2023-03-05T00:39:16;7.87;;;3.40;;
22826;SDS011;11580;52.562;13.418;2023-03-05T00:41:46;6.33;;;3.23;;
22826;SDS011;11580;52.562;13.418;2023-03-05T00:44:13;5.10;;;2.93;;
22826;SDS011;11580;52.562;13.418;2023-03-05T00:46:41;6.23;;;3.03;;
22826;SDS011;11580;52.562;13.418;2023-03-05T00:49:09;5.17;;;3.10;;
22826;SDS011;11580;52.562;13.418;2023-03-05T00:51:37;8.30;;;2.90;;
22826;SDS011;11580;52.562;13.418;2023-03-05T00:54:04;5.47;;;3.20;;
22826;SDS011;11580;52.562;13.418;2023-03-05T00:56:32;3.77;;;2.97;;
22826;SDS011;11580;52.562;13.418;2023-03-05T00:58:59;5.53;;;2.80;;
22826;SDS011;11580;52.562;13.418;2023-03-05T01:01:26;7.00;;;3.30;;
22826;SDS011;11580;52.562;13.418;2023-03-05T01:03:54;4.00;;;2.70;;
22826;SDS011;11580;52.562;13.418;2023-03-05T01:06:23;3.87;;;3.10;;
22826;SDS011;11580;52.562;13.418;2023-03-05T01:08:51;8.17;;;3.00;;
22826;SDS011;11580;52.562;13.418;2023-03-05T01:11:18;4.20;;;2.50;;
22826;SDS011;11580;52.562;13.418;2023-03-05T01:13:45;7.60;;;3.27;;
22826;SDS011;11580;52.562;13.418;2023-03-05T01:16:12;8.93;;;3.63;;
22826;SDS011;11580;52.562;13.418;2023-03-05T01:18:40;5.10;;;2.60;;
22826;SDS011;11580;52.562;13.418;2023-03-05T01:21:07;4.80;;;2.63;;
22826;SDS011;11580;52.562;13.418;2023-03-05T01:23:36;4.20;;;2.83;;
22826;SDS011;11580;52.562;13.418;2023-03-05T01:26:03;6.07;;;2.80;;
22826;SDS011;11580;52.562;13.418;2023-03-05T01:28:32;5.67;;;2.93;;
22826;SDS011;11580;52.562;13.418;2023-03-05T01:30:59;3.23;;;2.07;;
22826;SDS011;11580;52.562;13.418;2023-03-05T01:33:27;4.80;;;2.50;;
22826;SDS011;11580;52.562;13.418;2023-03-05T01:35:54;6.23;;;2.77;;
22826;SDS011;11580;52.562;13.418;2023-03-05T01:38:21;3.37;;;2.00;;
22826;SDS011;11580;52.562;13.418;2023-03-05T01:40:50;5.50;;;2.27;;
22826;SDS011;11580;52.562;13.418;2023-03-05T01:43:22;7.00;;;2.90;;
22826;SDS011;11580;52.562;13.418;2023-03-05T01:49:08;3.50;;;2.27;;
22826;SDS011;11580;52.562;13.418;2023-03-05T01:51:46;3.70;;;1.97;;
22826;SDS011;11580;52.562;13.418;2023-03-05T01:54:27;4.07;;;2.00;;
22826;SDS011;11580;52.562;13.418;2023-03-05T01:57:04;5.70;;;2.77;;
22826;SDS011;11580;52.562;13.418;2023-03-05T01:59:37;4.77;;;2.30;;
22826;SDS011;11580;52.562;13.418;2023-03-05T02:02:08;5.23;;;2.10;;
22826;SDS011;11580;52.562;13.418;2023-03-05T02:04:37;4.50;;;2.07;;
22826;SDS011;11580;52.562;13.418;2023-03-05T02:07:10;2.40;;;1.93;;
22826;SDS011;11580;52.562;13.418;2023-03-05T02:09:39;6.17;;;2.23;;
22826;SDS011;11580;52.562;13.418;2023-03-05T02:12:09;4.13;;;1.53;;
22826;SDS011;11580;52.562;13.418;2023-03-05T02:14:38;5.00;;;1.80;;
22826;SDS011;11580;52.562;13.418;2023-03-05T02:17:10;2.80;;;1.67;;
22826;SDS011;11580;52.562;13.418;2023-03-05T02:19:48;5.70;;;2.17;;
22826;SDS011;11580;52.562;13.418;2023-03-05T02:22:18;4.47;;;1.70;;
22826;SDS011;11580;52.562;13.418;2023-03-05T02:24:49;4.23;;;1.80;;
22826;SDS011;11580;52.562;13.418;2023-03-05T02:27:16;3.87;;;2.13;;
22826;SDS011;11580;52.562;13.418;2023-03-05T02:29:48;4.07;;;2.57;;
22826;SDS011;11580;52.562;13.418;2023-03-05T02:32:17;5.53;;;2.07;;
22826;SDS011;11580;52.562;13.418;2023-03-05T02:34:44;3.90;;;1.90;;
22826;SDS011;11580;52.562;13.418;2023-03-05T02:37:12;2.50;;;1.67;;
22826;SDS011;11580;52.562;13.418;2023-03-05T02:39:40;2.73;;;1.70;;
22826;SDS011;11580;52.562;13.418;2023-03-05T02:42:08;3.00;;;1.60;;
22826;SDS011;11580;52.562;13.418;2023-03-05T02:44:36;5.43;;;2.20;;
22826;SDS011;11580;52.562;13.418;2023-03-05T02:47:03;4.47;;;3.37;;
22826;SDS011;11580;52.562;13.418;2023-03-05T02:49:32;2.87;;;1.73;;
22826;SDS011;11580;52.562;13.418;2023-03-05T02:51:59;2.83;;;1.60;;
22826;SDS011;11580;52.562;13.418;2023-03-05T02:54:26;2.60;;;1.83;;
22826;SDS011;11580;52.562;13.418;2023-03-05T02:56:55;4.50;;;1.97;;
22826;SDS011;11580;52.562;13.418;2023-03-05T02:59:22;3.70;;;2.40;;
22826;SDS011;11580;52.562;13.418;2023-03-05T03:01:49;3.70;;;1.80;;
22826;SDS011;11580;52.562;13.418;2023-03-05T03:04:17;5.17;;;1.83;;
22826;SDS011;11580;52.562;13.418;2023-03-05T03:06:44;3.40;;;2.53;;
22826;SDS011;11580;52.562;13.418;2023-03-05T03:09:11;2.50;;;1.90;;
22826;SDS011;11580;52.562;13.418;2023-03-05T03:11:38;1.70;;;1.60;;
22826;SDS011;11580;52.562;13.418;2023-03-05T03:14:06;2.53;;;2.17;;
22826;SDS011;11580;52.562;13.418;2023-03-05T03:16:34;2.17;;;1.73;;
22826;SDS011;11580;52.562;13.418;2023-03-05T03:19:01;3.03;;;1.93;;
22826;SDS011;11580;52.562;13.418;2023-03-05T03:21:28;4.70;;;1.87;;
22826;SDS011;11580;52.562;13.418;2023-03-05T03:23:55;2.87;;;1.90;;
22826;SDS011;11580;52.562;13.418;2023-03-05T03:26:23;3.13;;;1.70;;
22826;SDS011;11580;52.562;13.418;2023-03-05T03:28:50;5.00;;;1.87;;
22826;SDS011;11580;52.562;13.418;2023-03-05T03:31:18;4.47;;;1.73;;
22826;SDS011;11580;52.562;13.418;2023-03-05T03:33:46;3.90;;;2.10;;
22826;SDS011;11580;52.562;13.418;2023-03-05T03:36:13;4.23;;;2.13;;
22826;SDS011;11580;52.562;13.418;2023-03-05T03:38:40;2.50;;;1.70;;
22826;SDS011;11580;52.562;13.418;2023-03-05T03:41:07;3.80;;;1.70;;
22826;SDS011;11580;52.562;13.418;2023-03-05T03:43:35;3.47;;;2.10;;
22826;SDS011;11580;52.562;13.418;2023-03-05T03:46:03;2.60;;;1.80;;
22826;SDS011;11580;52.562;13.418;2023-03-05T03:48:32;4.63;;;2.30;;
22826;SDS011;11580;52.562;13.418;2023-03-05T03:51:02;2.57;;;1.80;;
22826;SDS011;11580;52.562;13.418;2023-03-05T03:53:31;3.47;;;2.50;;
22826;SDS011;11580;52.562;13.418;2023-03-05T03:55:58;3.27;;;1.97;;
22826;SDS011;11580;52.562;13.418;2023-03-05T03:58:25;3.97;;;1.93;;
22826;SDS011;11580;52.562;13.418;2023-03-05T04:00:53;4.07;;;1.63;;
22826;SDS011;11580;52.562;13.418;2023-03-05T04:03:20;5.00;;;2.00;;
22826;SDS011;11580;52.562;13.418;2023-03-05T04:05:48;5.87;;;2.03;;
22826;SDS011;11580;52.562;13.418;2023-03-05T04:08:15;4.20;;;2.30;;
22826;SDS011;11580;52.562;13.418;2023-03-05T04:10:42;3.97;;;1.60;;
22826;SDS011;11580;52.562;13.418;2023-03-05T04:13:10;2.33;;;1.70;;
22826;SDS011;11580;52.562;13.418;2023-03-05T04:15:37;2.83;;;1.53;;
22826;SDS011;11580;52.562;13.418;2023-03-05T04:18:05;5.00;;;1.97;;
22826;SDS011;11580;52.562;13.418;2023-03-05T04:20:32;3.40;;;1.70;;
22826;SDS011;11580;52.562;13.418;2023-03-05T04:23:00;2.03;;;1.40;;
22826;SDS011;11580;52.562;13.418;2023-03-05T04:25:28;3.20;;;1.90;;
22826;SDS011;11580;52.562;13.418;2023-03-05T04:27:55;4.80;;;2.17;;
22826;SDS011;11580;52.562;13.418;2023-03-05T04:30:22;3.87;;;2.00;;
22826;SDS011;11580;52.562;13.418;2023-03-05T04:32:49;3.37;;;2.10;;
22826;SDS011;11580;52.562;13.418;2023-03-05T04:35:16;3.60;;;2.20;;
22826;SDS011;11580;52.562;13.418;2023-03-05T04:37:44;2.10;;;1.63;;
22826;SDS011;11580;52.562;13.418;2023-03-05T04:40:14;5.10;;;1.97;;
22826;SDS011;11580;52.562;13.418;2023-03-05T04:42:42;3.03;;;1.97;;
22826;SDS011;11580;52.562;13.418;2023-03-05T04:45:10;3.87;;;1.70;;
22826;SDS011;11580;52.562;13.418;2023-03-05T04:47:37;1.90;;;1.53;;
22826;SDS011;11580;52.562;13.418;2023-03-05T04:50:05;7.53;;;2.20;;
22826;SDS011;11580;52.562;13.418;2023-03-05T04:52:36;4.27;;;1.83;;
22826;SDS011;11580;52.562;13.418;2023-03-05T04:55:06;5.53;;;1.83;;
22826;SDS011;11580;52.562;13.418;2023-03-05T04:57:35;3.37;;;1.63;;
22826;SDS011;11580;52.562;13.418;2023-03-05T05:00:04;2.73;;;1.90;;
22826;SDS011;11580;52.562;13.418;2023-03-05T05:02:38;3.80;;;1.47;;
22826;SDS011;11580;52.562;13.418;2023-03-05T05:05:06;3.73;;;1.70;;
22826;SDS011;11580;52.562;13.418;2023-03-05T05:07:34;2.37;;;1.77;;
22826;SDS011;11580;52.562;13.418;2023-03-05T05:10:02;3.83;;;2.30;;
22826;SDS011;11580;52.562;13.418;2023-03-05T05:12:32;2.60;;;1.80;;
22826;SDS011;11580;52.562;13.418;2023-03-05T05:15:01;3.53;;;1.50;;
22826;SDS011;11580;52.562;13.418;2023-03-05T05:17:29;2.93;;;1.60;;
22826;SDS011;11580;52.562;13.418;2023-03-05T05:19:57;3.40;;;1.40;;
22826;SDS011;11580;52.562;13.418;2023-03-05T05:22:24;4.30;;;2.30;;
22826;SDS011;11580;52.562;13.418;2023-03-05T05:24:53;5.13;;;1.93;;
22826;SDS011;11580;52.562;13.418;2023-03-05T05:27:20;4.10;;;1.70;;
22826;SDS011;11580;52.562;13.418;2023-03-05T05:29:48;3.13;;;1.37;;
22826;SDS011;11580;52.562;13.418;2023-03-05T05:32:18;3.10;;;1.90;;
22826;SDS011;11580;52.562;13.418;2023-03-05T05:34:48;4.10;;;2.43;;
22826;SDS011;11580;52.562;13.418;2023-03-05T05:37:20;1.93;;;1.83;;
22826;SDS011;11580;52.562;13.418;2023-03-05T05:39:48;4.70;;;2.00;;
22826;SDS011;11580;52.562;13.418;2023-03-05T05:42:15;2.87;;;2.20;;
22826;SDS011;11580;52.562;13.418;2023-03-05T05:44:42;4.00;;;1.30;;
22826;SDS011;11580;52.562;13.418;2023-03-05T05:47:11;5.60;;;1.50;;
22826;SDS011;11580;52.562;13.418;2023-03-05T05:49:39;6.23;;;1.70;;
22826;SDS011;11580;52.562;13.418;2023-03-05T05:52:07;3.87;;;1.80;;
22826;SDS011;11580;52.562;13.418;2023-03-05T05:54:34;3.80;;;1.70;;
22826;SDS011;11580;52.562;13.418;2023-03-05T05:57:01;2.93;;;1.50;;
22826;SDS011;11580;52.562;13.418;2023-03-05T05:59:29;3.33;;;1.60;;
22826;SDS011;11580;52.562;13.418;2023-03-05T06:01:56;3.13;;;2.00;;
22826;SDS011;11580;52.562;13.418;2023-03-05T06:04:23;4.80;;;3.30;;
22826;SDS011;11580;52.562;13.418;2023-03-05T06:06:52;3.70;;;1.87;;
22826;SDS011;11580;52.562;13.418;2023-03-05T06:09:19;3.17;;;2.10;;
22826;SDS011;11580;52.562;13.418;2023-03-05T06:11:46;2.37;;;1.60;;
22826;SDS011;11580;52.562;13.418;2023-03-05T06:14:14;3.80;;;1.93;;
22826;SDS011;11580;52.562;13.418;2023-03-05T06:16:41;5.00;;;1.60;;
22826;SDS011;11580;52.562;13.418;2023-03-05T06:19:09;2.83;;;1.30;;
22826;SDS011;11580;52.562;13.418;2023-03-05T06:21:38;3.27;;;1.57;;
22826;SDS011;11580;52.562;13.418;2023-03-05T06:24:08;5.00;;;2.10;;
22826;SDS011;11580;52.562;13.418;2023-03-05T06:26:36;3.23;;;1.80;;
22826;SDS011;11580;52.562;13.418;2023-03-05T06:29:03;3.37;;;1.80;;
22826;SDS011;11580;52.562;13.418;2023-03-05T06:31:30;2.60;;;1.87;;
22826;SDS011;11580;52.562;13.418;2023-03-05T06:33:59;5.70;;;2.40;;
22826;SDS011;11580;52.562;13.418;2023-03-05T06:36:26;3.20;;;1.73;;
22826;SDS011;11580;52.562;13.418;2023-03-05T06:38:55;3.10;;;1.80;;
22826;SDS011;11580;52.562;13.418;2023-03-05T06:41:27;2.40;;;1.73;;
22826;SDS011;11580;52.562;13.418;2023-03-05T06:43:55;3.00;;;1.93;;
22826;SDS011;11580;52.562;13.418;2023-03-05T06:46:27;5.73;;;2.60;;
22826;SDS011;11580;52.562;13.418;2023-03-05T06:48:56;3.13;;;2.23;;
22826;SDS011;11580;52.562;13.418;2023-03-05T06:51:26;3.60;;;1.87;;
22826;SDS011;11580;52.562;13.418;2023-03-05T06:53:58;2.57;;;1.50;;
22826;SDS011;11580;52.562;13.418;2023-03-05T06:56:28;2.30;;;1.83;;
22826;SDS011;11580;52.562;13.418;2023-03-05T06:58:56;4.63;;;1.97;;
22826;SDS011;11580;52.562;13.418;2023-03-05T07:01:23;2.10;;;1.50;;
22826;SDS011;11580;52.562;13.418;2023-03-05T07:03:51;4.70;;;2.20;;
22826;SDS011;11580;52.562;13.418;2023-03-05T07:06:22;2.53;;;2.00;;
22826;SDS011;11580;52.562;13.418;2023-03-05T07:08:53;3.80;;;1.60;;
22826;SDS011;11580;52.562;13.418;2023-03-05T07:11:21;4.00;;;2.07;;
22826;SDS011;11580;52.562;13.418;2023-03-05T07:13:50;2.77;;;2.30;;
22826;SDS011;11580;52.562;13.418;2023-03-05T07:16:18;6.67;;;1.60;;
22826;SDS011;11580;52.562;13.418;2023-03-05T07:18:48;3.70;;;1.63;;
22826;SDS011;11580;52.562;13.418;2023-03-05T07:21:17;4.13;;;2.20;;
22826;SDS011;11580;52.562;13.418;2023-03-05T07:23:48;4.47;;;1.70;;
22826;SDS011;11580;52.562;13.418;2023-03-05T07:26:16;3.57;;;1.87;;
22826;SDS011;11580;52.562;13.418;2023-03-05T07:28:43;1.80;;;1.60;;
22826;SDS011;11580;52.562;13.418;2023-03-05T07:31:13;3.83;;;1.80;;
22826;SDS011;11580;52.562;13.418;2023-03-05T07:33:43;2.60;;;1.77;;
22826;SDS011;11580;52.562;13.418;2023-03-05T07:36:10;2.60;;;2.23;;
22826;SDS011;11580;52.562;13.418;2023-03-05T07:38:38;3.97;;;1.90;;
22826;SDS011;11580;52.562;13.418;2023-03-05T07:41:06;2.60;;;2.33;;
22826;SDS011;11580;52.562;13.418;2023-03-05T07:43:36;2.30;;;1.60;;
22826;SDS011;11580;52.562;13.418;2023-03-05T07:46:05;1.70;;;1.30;;
22826;SDS011;11580;52.562;13.418;2023-03-05T07:48:35;2.30;;;2.10;;
22826;SDS011;11580;52.562;13.418;2023-03-05T07:51:03;5.03;;;1.77;;
22826;SDS011;11580;52.562;13.418;2023-03-05T07:53:33;2.00;;;1.90;;
22826;SDS011;11580;52.562;13.418;2023-03-05T07:56:00;3.90;;;1.60;;
22826;SDS011;11580;52.562;13.418;2023-03-05T07:58:28;4.23;;;1.90;;
22826;SDS011;11580;52.562;13.418;2023-03-05T08:00:55;2.47;;;1.50;;
22826;SDS011;11580;52.562;13.418;2023-03-05T08:03:22;3.60;;;1.83;;
22826;SDS011;11580;52.562;13.418;2023-03-05T08:05:51;1.67;;;1.53;;
22826;SDS011;11580;52.562;13.418;2023-03-05T08:08:18;3.80;;;1.90;;
22826;SDS011;11580;52.562;13.418;2023-03-05T08:10:45;2.97;;;1.50;;
22826;SDS011;11580;52.562;13.418;2023-03-05T08:13:12;2.33;;;1.60;;
22826;SDS011;11580;52.562;13.418;2023-03-05T08:15:39;2.00;;;1.50;;
22826;SDS011;11580;52.562;13.418;2023-03-05T08:18:07;1.43;;;1.30;;
22826;SDS011;11580;52.562;13.418;2023-03-05T08:20:34;3.90;;;1.87;;
22826;SDS011;11580;52.562;13.418;2023-03-05T08:23:03;2.63;;;1.57;;
22826;SDS011;11580;52.562;13.418;2023-03-05T08:25:30;3.90;;;1.80;;
22826;SDS011;11580;52.562;13.418;2023-03-05T08:27:58;3.60;;;1.70;;
22826;SDS011;11580;52.562;13.418;2023-03-05T08:30:25;3.07;;;1.60;;
22826;SDS011;11580;52.562;13.418;2023-03-05T08:32:52;2.13;;;1.57;;
22826;SDS011;11580;52.562;13.418;2023-03-05T08:35:21;3.87;;;2.23;;
22826;SDS011;11580;52.562;13.418;2023-03-05T08:37:49;2.63;;;1.70;;
22826;SDS011;11580;52.562;13.418;2023-03-05T08:40:18;2.20;;;1.37;;
22826;SDS011;11580;52.562;13.418;2023-03-05T08:42:45;2.00;;;1.90;;
22826;SDS011;11580;52.562;13.418;2023-03-05T08:45:12;2.57;;;1.70;;
22826;SDS011;11580;52.562;13.418;2023-03-05T08:47:40;2.27;;;1.37;;
22826;SDS011;11580;52.562;13.418;2023-03-05T08:50:08;2.77;;;1.97;;
22826;SDS011;11580;52.562;13.418;2023-03-05T08:52:36;3.53;;;1.70;;
22826;SDS011;11580;52.562;13.418;2023-03-05T08:55:04;2.67;;;1.60;;
22826;SDS011;11580;52.562;13.418;2023-03-05T08:57:33;2.80;;;1.20;;
22826;SDS011;11580;52.562;13.418;2023-03-05T09:00:00;3.50;;;1.70;;
22826;SDS011;11580;52.562;13.418;2023-03-05T09:02:27;3.90;;;1.93;;
22826;SDS011;11580;52.562;13.418;2023-03-05T09:04:55;3.37;;;2.00;;
22826;SDS011;11580;52.562;13.418;2023-03-05T09:07:22;3.10;;;1.57;;
22826;SDS011;11580;52.562;13.418;2023-03-05T09:09:50;3.03;;;1.83;;
22826;SDS011;11580;52.562;13.418;2023-03-05T09:12:17;1.80;;;1.70;;
22826;SDS011;11580;52.562;13.418;2023-03-05T09:14:45;2.63;;;1.83;;
22826;SDS011;11580;52.562;13.418;2023-03-05T09:17:12;3.53;;;1.63;;
22826;SDS011;11580;52.562;13.418;2023-03-05T09:19:40;2.90;;;1.93;;
22826;SDS011;11580;52.562;13.418;2023-03-05T09:22:08;4.90;;;1.83;;
22826;SDS011;11580;52.562;13.418;2023-03-05T09:24:35;3.63;;;1.47;;
22826;SDS011;11580;52.562;13.418;2023-03-05T09:27:02;2.73;;;1.70;;
22826;SDS011;11580;52.562;13.418;2023-03-05T09:29:30;2.50;;;1.33;;
22826;SDS011;11580;52.562;13.418;2023-03-05T09:31:59;2.83;;;1.40;;
22826;SDS011;11580;52.562;13.418;2023-03-05T09:34:26;2.53;;;1.80;;
22826;SDS011;11580;52.562;13.418;2023-03-05T09:36:53;2.57;;;1.37;;
22826;SDS011;11580;52.562;13.418;2023-03-05T09:39:20;2.10;;;1.90;;
22826;SDS011;11580;52.562;13.418;2023-03-05T09:41:59;2.00;;;1.07;;
22826;SDS011;11580;52.562;13.418;2023-03-05T09:44:54;2.53;;;2.00;;
22826;SDS011;11580;52.562;13.418;2023-03-05T09:47:49;2.90;;;1.80;;
22826;SDS011;11580;52.562;13.418;2023-03-05T09:53:20;1.77;;;1.67;;
22826;SDS011;11580;52.562;13.418;2023-03-05T09:55:56;1.93;;;1.60;;
22826;SDS011;11580;52.562;13.418;2023-03-05T09:58:30;2.30;;;1.40;;
22826;SDS011;11580;52.562;13.418;2023-03-05T10:01:04;2.77;;;1.47;;
22826;SDS011;11580;52.562;13.418;2023-03-05T10:03:41;4.17;;;1.90;;
22826;SDS011;11580;52.562;13.418;2023-03-05T10:06:20;2.30;;;1.87;;
22826;SDS011;11580;52.562;13.418;2023-03-05T10:08:52;3.03;;;2.27;;
22826;SDS011;11580;52.562;13.418;2023-03-05T10:11:37;3.10;;;2.03;;
22826;SDS011;11580;52.562;13.418;2023-03-05T10:14:12;2.50;;;1.90;;
22826;SDS011;11580;52.562;13.418;2023-03-05T10:20:20;2.40;;;2.20;;
22826;SDS011;11580;52.562;13.418;2023-03-05T10:23:08;2.70;;;1.90;;
22826;SDS011;11580;52.562;13.418;2023-03-05T10:25:57;1.83;;;1.50;;
22826;SDS011;11580;52.562;13.418;2023-03-05T10:28:38;2.77;;;1.73;;
22826;SDS011;11580;52.562;13.418;2023-03-05T10:31:23;1.90;;;1.43;;
22826;SDS011;11580;52.562;13.418;2023-03-05T10:34:11;1.70;;;1.53;;
22826;SDS011;11580;52.562;13.418;2023-03-05T10:37:03;2.60;;;1.67;;
22826;SDS011;11580;52.562;13.418;2023-03-05T10:39:50;3.70;;;1.80;;
22826;SDS011;11580;52.562;13.418;2023-03-05T10:42:41;2.47;;;2.17;;
22826;SDS011;11580;52.562;13.418;2023-03-05T10:45:17;3.07;;;1.57;;
22826;SDS011;11580;52.562;13.418;2023-03-05T10:47:49;2.53;;;2.17;;
22826;SDS011;11580;52.562;13.418;2023-03-05T10:50:21;4.33;;;2.27;;
22826;SDS011;11580;52.562;13.418;2023-03-05T10:52:54;2.30;;;2.00;;
22826;SDS011;11580;52.562;13.418;2023-03-05T10:55:38;2.50;;;1.80;;
22826;SDS011;11580;52.562;13.418;2023-03-05T10:58:09;2.10;;;1.90;;
22826;SDS011;11580;52.562;13.418;2023-03-05T11:00:39;2.27;;;1.60;;
22826;SDS011;11580;52.562;13.418;2023-03-05T11:03:23;2.60;;;2.50;;
22826;SDS011;11580;52.562;13.418;2023-03-05T11:05:52;3.60;;;2.00;;
22826;SDS011;11580;52.562;13.418;2023-03-05T11:08:29;2.33;;;1.80;;
22826;SDS011;11580;52.562;13.418;2023-03-05T11:11:04;3.40;;;2.13;;
22826;SDS011;11580;52.562;13.418;2023-03-05T11:13:40;2.17;;;1.70;;
22826;SDS011;11580;52.562;13.418;2023-03-05T11:16:22;2.67;;;1.80;;
22826;SDS011;11580;52.562;13.418;2023-03-05T11:19:11;2.20;;;2.00;;
22826;SDS011;11580;52.562;13.418;2023-03-05T11:21:45;2.83;;;1.57;;
22826;SDS011;11580;52.562;13.418;2023-03-05T11:24:32;3.20;;;2.20;;
22826;SDS011;11580;52.562;13.418;2023-03-05T11:26:59;2.27;;;2.07;;
22826;SDS011;11580;52.562;13.418;2023-03-05T11:29:27;2.00;;;1.80;;
22826;SDS011;11580;52.562;13.418;2023-03-05T11:32:13;3.33;;;2.10;;
22826;SDS011;11580;52.562;13.418;2023-03-05T11:34:45;4.40;;;3.40;;
22826;SDS011;11580;52.562;13.418;2023-03-05T11:37:18;4.10;;;3.10;;
22826;SDS011;11580;52.562;13.418;2023-03-05T11:39:57;3.13;;;2.67;;
22826;SDS011;11580;52.562;13.418;2023-03-05T11:42:43;2.67;;;2.20;;
22826;SDS011;11580;52.562;13.418;2023-03-05T11:45:13;2.80;;;2.40;;
22826;SDS011;11580;52.562;13.418;2023-03-05T11:47:45;3.17;;;2.87;;
22826;SDS011;11580;52.562;13.418;2023-03-05T11:50:18;2.90;;;2.30;;
22826;SDS011;11580;52.562;13.418;2023-03-05T11:52:49;5.00;;;2.20;;
22826;SDS011;11580;52.562;13.418;2023-03-05T11:55:22;2.07;;;1.97;;
22826;SDS011;11580;52.562;13.418;2023-03-05T11:57:59;2.00;;;1.80;;
22826;SDS011;11580;52.562;13.418;2023-03-05T12:00:47;3.43;;;2.47;;
22826;SDS011;11580;52.562;13.418;2023-03-05T12:03:16;4.07;;;2.13;;
22826;SDS011;11580;52.562;13.418;2023-03-05T12:05:47;3.87;;;2.17;;
22826;SDS011;11580;52.562;13.418;2023-03-05T12:08:19;3.80;;;1.83;;
22826;SDS011;11580;52.562;13.418;2023-03-05T12:10:56;4.00;;;2.00;;
22826;SDS011;11580;52.562;13.418;2023-03-05T12:13:27;3.07;;;1.73;;
22826;SDS011;11580;52.562;13.418;2023-03-05T12:16:05;2.07;;;1.87;;
22826;SDS011;11580;52.562;13.418;2023-03-05T12:18:47;3.00;;;1.67;;
22826;SDS011;11580;52.562;13.418;2023-03-05T12:21:26;1.83;;;1.73;;
22826;SDS011;11580;52.562;13.418;2023-03-05T12:24:01;3.90;;;2.10;;
22826;SDS011;11580;52.562;13.418;2023-03-05T12:27:07;4.83;;;2.10;;
22826;SDS011;11580;52.562;13.418;2023-03-05T12:29:43;2.37;;;2.17;;
22826;SDS011;11580;52.562;13.418;2023-03-05T12:35:22;3.23;;;2.07;;
22826;SDS011;11580;52.562;13.418;2023-03-05T12:38:00;2.17;;;1.97;;
22826;SDS011;11580;52.562;13.418;2023-03-05T12:44:14;2.60;;;2.40;;
22826;SDS011;11580;52.562;13.418;2023-03-05T12:49:47;2.50;;;1.97;;
22826;SDS011;11580;52.562;13.418;2023-03-05T12:52:20;3.53;;;2.80;;
22826;SDS011;11580;52.562;13.418;2023-03-05T12:54:56;3.00;;;2.07;;
22826;SDS011;11580;52.562;13.418;2023-03-05T12:57:51;4.20;;;2.97;;
22826;SDS011;11580;52.562;13.418;2023-03-05T13:00:26;3.63;;;3.03;;
22826;SDS011;11580;52.562;13.418;2023-03-05T13:02:59;2.50;;;2.27;;
22826;SDS011;11580;52.562;13.418;2023-03-05T13:05:34;2.00;;;1.80;;
22826;SDS011;11580;52.562;13.418;2023-03-05T13:08:11;1.90;;;1.80;;
22826;SDS011;11580;52.562;13.418;2023-03-05T13:10:49;2.23;;;1.90;;
22826;SDS011;11580;52.562;13.418;2023-03-05T13:13:19;2.53;;;1.93;;
22826;SDS011;11580;52.562;13.418;2023-03-05T13:15:48;2.30;;;1.53;;
22826;SDS011;11580;52.562;13.418;2023-03-05T13:18:18;2.90;;;2.30;;
22826;SDS011;11580;52.562;13.418;2023-03-05T13:20:47;2.43;;;1.80;;
22826;SDS011;11580;52.562;13.418;2023-03-05T13:23:26;1.70;;;1.60;;
22826;SDS011;11580;52.562;13.418;2023-03-05T13:26:01;1.83;;;1.50;;
22826;SDS011;11580;52.562;13.418;2023-03-05T13:28:39;2.30;;;1.60;;
22826;SDS011;11580;52.562;13.418;2023-03-05T13:31:12;2.97;;;1.70;;
22826;SDS011;11580;52.562;13.418;2023-03-05T13:33:48;2.47;;;2.00;;
22826;SDS011;11580;52.562;13.418;2023-03-05T13:36:18;2.37;;;1.53;;
22826;SDS011;11580;52.562;13.418;2023-03-05T13:38:47;2.37;;;1.60;;
22826;SDS011;11580;52.562;13.418;2023-03-05T13:41:17;1.80;;;1.70;;
22826;SDS011;11580;52.562;13.418;2023-03-05T13:43:49;2.20;;;1.87;;
22826;SDS011;11580;52.562;13.418;2023-03-05T13:46:24;2.93;;;1.70;;
22826;SDS011;11580;52.562;13.418;2023-03-05T13:48:56;2.40;;;1.57;;
22826;SDS011;11580;52.562;13.418;2023-03-05T13:51:42;2.30;;;1.30;;
22826;SDS011;11580;52.562;13.418;2023-03-05T13:54:12;1.50;;;1.30;;
22826;SDS011;11580;52.562;13.418;2023-03-05T13:56:48;3.87;;;1.90;;
22826;SDS011;11580;52.562;13.418;2023-03-05T13:59:18;3.13;;;1.73;;
22826;SDS011;11580;52.562;13.418;2023-03-05T14:01:49;1.53;;;1.43;;
22826;SDS011;11580;52.562;13.418;2023-03-05T14:04:18;1.33;;;1.20;;
22826;SDS011;11580;52.562;13.418;2023-03-05T14:06:50;2.33;;;1.70;;
22826;SDS011;11580;52.562;13.418;2023-03-05T14:09:22;2.53;;;1.60;;
22826;SDS011;11580;52.562;13.418;2023-03-05T14:11:56;1.50;;;1.40;;
22826;SDS011;11580;52.562;13.418;2023-03-05T14:14:27;2.40;;;1.60;;
22826;SDS011;11580;52.562;13.418;2023-03-05T14:20:08;4.47;;;1.60;;
22826;SDS011;11580;52.562;13.418;2023-03-05T14:22:50;2.30;;;1.57;;
22826;SDS011;11580;52.562;13.418;2023-03-05T14:25:29;2.90;;;1.60;;
22826;SDS011;11580;52.562;13.418;2023-03-05T14:28:01;4.03;;;2.03;;
22826;SDS011;11580;52.562;13.418;2023-03-05T14:30:31;2.63;;;1.80;;
22826;SDS011;11580;52.562;13.418;2023-03-05T14:33:01;2.80;;;1.67;;
22826;SDS011;11580;52.562;13.418;2023-03-05T14:35:29;2.10;;;1.50;;
22826;SDS011;11580;52.562;13.418;2023-03-05T14:37:57;1.97;;;1.40;;
22826;SDS011;11580;52.562;13.418;2023-03-05T14:40:26;3.80;;;1.50;;
22826;SDS011;11580;52.562;13.418;2023-03-05T14:42:56;2.20;;;1.23;;
22826;SDS011;11580;52.562;13.418;2023-03-05T14:45:25;2.63;;;1.73;;
22826;SDS011;11580;52.562;13.418;2023-03-05T14:47:55;1.67;;;1.30;;
22826;SDS011;11580;52.562;13.418;2023-03-05T14:50:26;3.87;;;1.70;;
22826;SDS011;11580;52.562;13.418;2023-03-05T14:52:57;1.97;;;1.57;;
22826;SDS011;11580;52.562;13.418;2023-03-05T14:55:28;3.20;;;1.50;;
22826;SDS011;11580;52.562;13.418;2023-03-05T14:57:59;1.70;;;1.23;;
22826;SDS011;11580;52.562;13.418;2023-03-05T15:00:30;1.87;;;1.50;;
22826;SDS011;11580;52.562;13.418;2023-03-05T15:02:57;2.80;;;1.40;;
22826;SDS011;11580;52.562;13.418;2023-03-05T15:05:26;4.40;;;1.50;;
22826;SDS011;11580;52.562;13.418;2023-03-05T15:07:53;2.80;;;1.57;;
22826;SDS011;11580;52.562;13.418;2023-03-05T15:10:22;1.40;;;1.30;;
22826;SDS011;11580;52.562;13.418;2023-03-05T15:12:50;1.17;;;1.07;;
22826;SDS011;11580;52.562;13.418;2023-03-05T15:15:18;2.80;;;1.13;;
22826;SDS011;11580;52.562;13.418;2023-03-05T15:17:47;1.03;;;1.00;;